Tonic Sea — D5AZ8 — position and weather

sailwx.info

Track history (hours):
 
Tides and Currents Weather Stations Pressure Air Temp Water Temp Dewpoint Dewpoint Depression Visibility Wind Speed Wind Dir Waves Ship Positions

Tonic Sea

Last reported at 2014-Aug-27 00:07 UTC. Time now 2014-Aug-30 18:32 UTC.
Position N 31°53' E 029°21'.

Length 229 m; draft 12.3 m.

Type: Cargo ship. MMSI: 636015479.

Date/timePositionNaut miles runAvg speedWind from/ knotsBaromVisibWave heightAir tempDewpointWater temp
2014-Aug-27 00:07N 31°53' E 029°21'611.7
2014-Aug-26 23:33N 31°59' E 029°18'1211.7
2014-Aug-26 22:33N 32°10' E 029°13'1311.4
2014-Aug-26 21:27N 32°21' E 029°07'9 9.9
2014-Aug-26 20:33N 32°29' E 029°03'13 9.6
2014-Aug-26 19:11N 32°42' E 028°57'6 9.5
2014-Aug-26 18:33N 32°47' E 028°54'9 9.0
2014-Aug-26 17:32N 32°55' E 028°50'18110.6
2014-Aug-26 00:33N 35°42' E 027°27'1111.0
2014-Aug-25 23:32N 35°53' E 027°22'1111.0
2014-Aug-25 22:33N 36°02' E 027°14'1111.2
2014-Aug-25 21:33N 36°10' E 027°06'1111.3
2014-Aug-25 20:33N 36°19' E 026°57'1311.1
2014-Aug-25 19:25N 36°30' E 026°49'1011.6
2014-Aug-25 18:33N 36°40' E 026°45'1211.5
2014-Aug-25 17:33N 36°50' E 026°40'1111.6
2014-Aug-25 16:34N 37°01' E 026°35'1110.6
2014-Aug-25 15:33N 37°09' E 026°27'1111.1
2014-Aug-25 14:34N 37°16' E 026°15'1111.1
2014-Aug-25 13:33N 37°22' E 026°03'1110.9
2014-Aug-25 12:33N 37°27' E 025°51'1110.8
2014-Aug-25 11:33N 37°37' E 025°44'1111.3
2014-Aug-25 10:33N 37°47' E 025°40'1111.3
2014-Aug-25 09:33N 37°58' E 025°35'1311.2
2014-Aug-25 08:26N 38°10' E 025°31'910.9
2014-Aug-25 07:33N 38°19' E 025°27'3411.2
2014-Aug-25 04:33N 38°53' E 025°28'1111.5
2014-Aug-25 03:33N 39°04' E 025°31'1211.2
2014-Aug-25 02:27N 39°16' E 025°35'1011.0
2014-Aug-25 01:33N 39°25' E 025°38'2511.0
2014-Aug-24 23:17N 39°50' E 025°46'1810.6
2014-Aug-24 21:33N 40°01' E 026°05'1611.5
2014-Aug-24 20:07N 40°10' E 026°23'1912.3
2014-Aug-24 18:33N 40°23' E 026°40'9 9.3
2014-Aug-24 17:33N 40°28' E 026°51'89 4.9
2014-Aug-23 23:27N 40°54' E 028°43'910.2
2014-Aug-23 22:33N 40°56' E 028°55'  
Track history (hours):
 
Tides and Currents Weather Stations Pressure Air Temp Water Temp Dewpoint Dewpoint Depression Visibility Wind Speed Wind Dir Waves Ship Positions

Tonic Sea

Last reported at 2014-Aug-27 00:07 UTC. Time now 2014-Aug-30 18:32 UTC.
Position N 31°53' E 029°21'.

Length 229 m; draft 12.3 m.

Type: Cargo ship. MMSI: 636015479.

Date/timePositionNaut miles runAvg speedWind from/ knotsBaromVisibWave heightAir tempDewpointWater temp
2014-Aug-27 00:07N 31°53' E 029°21'611.7
2014-Aug-26 23:33N 31°59' E 029°18'1211.7
2014-Aug-26 22:33N 32°10' E 029°13'1311.4
2014-Aug-26 21:27N 32°21' E 029°07'9 9.9
2014-Aug-26 20:33N 32°29' E 029°03'13 9.6
2014-Aug-26 19:11N 32°42' E 028°57'6 9.5
2014-Aug-26 18:33N 32°47' E 028°54'9 9.0
2014-Aug-26 17:32N 32°55' E 028°50'18110.6
2014-Aug-26 00:33N 35°42' E 027°27'1111.0
2014-Aug-25 23:32N 35°53' E 027°22'1111.0
2014-Aug-25 22:33N 36°02' E 027°14'1111.2
2014-Aug-25 21:33N 36°10' E 027°06'1111.3
2014-Aug-25 20:33N 36°19' E 026°57'1311.1
2014-Aug-25 19:25N 36°30' E 026°49'1011.6
2014-Aug-25 18:33N 36°40' E 026°45'1211.5
2014-Aug-25 17:33N 36°50' E 026°40'1111.6
2014-Aug-25 16:34N 37°01' E 026°35'1110.6
2014-Aug-25 15:33N 37°09' E 026°27'1111.1
2014-Aug-25 14:34N 37°16' E 026°15'1111.1
2014-Aug-25 13:33N 37°22' E 026°03'1110.9
2014-Aug-25 12:33N 37°27' E 025°51'1110.8
2014-Aug-25 11:33N 37°37' E 025°44'1111.3
2014-Aug-25 10:33N 37°47' E 025°40'1111.3
2014-Aug-25 09:33N 37°58' E 025°35'1311.2
2014-Aug-25 08:26N 38°10' E 025°31'910.9
2014-Aug-25 07:33N 38°19' E 025°27'3411.2
2014-Aug-25 04:33N 38°53' E 025°28'1111.5
2014-Aug-25 03:33N 39°04' E 025°31'1211.2
2014-Aug-25 02:27N 39°16' E 025°35'1011.0
2014-Aug-25 01:33N 39°25' E 025°38'2511.0
2014-Aug-24 23:17N 39°50' E 025°46'1810.6
2014-Aug-24 21:33N 40°01' E 026°05'1611.5
2014-Aug-24 20:07N 40°10' E 026°23'1912.3
2014-Aug-24 18:33N 40°23' E 026°40'9 9.3
2014-Aug-24 17:33N 40°28' E 026°51'89 4.9
2014-Aug-23 23:27N 40°54' E 028°43'910.2
2014-Aug-23 22:33N 40°56' E 028°55'  

Dump ship's entire track history